Thatcher, Utah
Current Conditions -  °F | °C
As of 5:35 PM on Wednesday 22 Oct 2014 (Local Time) from KBMC Reporting Station
Clear Clear  
Wind Chill: 59°   Ceiling: Unl
Heat Index: 59°   Visibility: 10mi
Dew Point: 24°   Wind: 0mph
Humidity: 25%   Direction: NA
Pressure: 30.17"   Gusts: NA
Location:  41.6836°N, 112.26°W
Report Text: KBMC 222335Z AUTO 00000KT 10SM CLR 15/M05 A3017 RMK AO1 T01521046
Loading
Personal Weather Stations






























Interactive Weather Map
Tropical Storm Tracking
New forecast layout! Learn more

10-Day Weather Forecast

Advertisements
Track Severe Weather on mobile